sensor_id;sensor_type;location;lat;lon;timestamp;pressure;altitude;pressure_sealevel;temperature;humidity
64853;BME280;56050;55.558;-4.644;2023-09-30T00:00:56;102163.00;;;15.39;64.53
64853;BME280;56050;55.558;-4.644;2023-09-30T00:03:22;102166.91;;;15.38;64.82
64853;BME280;56050;55.558;-4.644;2023-09-30T00:05:47;102157.56;;;15.36;64.87
64853;BME280;56050;55.558;-4.644;2023-09-30T00:08:12;102172.31;;;15.35;64.56
64853;BME280;56050;55.558;-4.644;2023-09-30T00:10:38;102171.94;;;15.33;64.83
64853;BME280;56050;55.558;-4.644;2023-09-30T00:13:03;102168.00;;;15.30;64.84
64853;BME280;56050;55.558;-4.644;2023-09-30T00:15:35;102169.19;;;15.29;64.88
64853;BME280;56050;55.558;-4.644;2023-09-30T00:18:01;102173.84;;;15.28;64.83
64853;BME280;56050;55.558;-4.644;2023-09-30T00:20:27;102169.97;;;15.29;64.92
64853;BME280;56050;55.558;-4.644;2023-09-30T00:22:53;102162.22;;;15.32;65.05
64853;BME280;56050;55.558;-4.644;2023-09-30T00:25:18;102161.44;;;15.31;64.70
64853;BME280;56050;55.558;-4.644;2023-09-30T00:27:44;102160.25;;;15.28;64.83
64853;BME280;56050;55.558;-4.644;2023-09-30T00:30:09;102156.38;;;15.26;64.75
64853;BME280;56050;55.558;-4.644;2023-09-30T00:32:35;102149.78;;;15.23;64.87
64853;BME280;56050;55.558;-4.644;2023-09-30T00:35:01;102148.59;;;15.21;65.20
64853;BME280;56050;55.558;-4.644;2023-09-30T00:37:27;102149.38;;;15.18;65.12
64853;BME280;56050;55.558;-4.644;2023-09-30T00:39:53;102147.41;;;15.15;65.11
64853;BME280;56050;55.558;-4.644;2023-09-30T00:42:18;102145.47;;;15.12;65.25
64853;BME280;56050;55.558;-4.644;2023-09-30T00:44:46;102137.31;;;15.08;65.24
64853;BME280;56050;55.558;-4.644;2023-09-30T00:47:13;102140.41;;;15.07;65.45
64853;BME280;56050;55.558;-4.644;2023-09-30T00:49:40;102144.66;;;15.04;65.35
64853;BME280;56050;55.558;-4.644;2023-09-30T00:52:09;102142.31;;;15.03;65.37
64853;BME280;56050;55.558;-4.644;2023-09-30T00:54:35;102145.78;;;15.00;65.39
64853;BME280;56050;55.558;-4.644;2023-09-30T00:57:02;102139.59;;;14.99;65.55
64853;BME280;56050;55.558;-4.644;2023-09-30T00:59:30;102141.53;;;14.99;65.33
64853;BME280;56050;55.558;-4.644;2023-09-30T01:01:58;102149.25;;;14.97;65.32
64853;BME280;56050;55.558;-4.644;2023-09-30T01:04:29;102154.69;;;14.97;65.49
64853;BME280;56050;55.558;-4.644;2023-09-30T01:06:54;102161.31;;;14.96;65.52
64853;BME280;56050;55.558;-4.644;2023-09-30T01:09:22;102161.31;;;14.96;65.42
64853;BME280;56050;55.558;-4.644;2023-09-30T01:11:48;102161.31;;;14.96;65.63
64853;BME280;56050;55.558;-4.644;2023-09-30T01:14:33;102164.78;;;14.93;65.61
64853;BME280;56050;55.558;-4.644;2023-09-30T01:17:08;102163.97;;;14.92;65.28
64853;BME280;56050;55.558;-4.644;2023-09-30T01:19:34;102162.44;;;14.91;65.34
64853;BME280;56050;55.558;-4.644;2023-09-30T01:21:59;102163.59;;;14.90;65.30
64853;BME280;56050;55.558;-4.644;2023-09-30T01:24:29;102160.50;;;14.88;65.36
64853;BME280;56050;55.558;-4.644;2023-09-30T01:26:55;102166.69;;;14.89;65.31
64853;BME280;56050;55.558;-4.644;2023-09-30T01:29:21;102163.56;;;14.87;65.48
64853;BME280;56050;55.558;-4.644;2023-09-30T01:31:47;102160.47;;;14.85;65.56
64853;BME280;56050;55.558;-4.644;2023-09-30T01:34:14;102165.09;;;14.84;65.37
64853;BME280;56050;55.558;-4.644;2023-09-30T01:36:41;102172.84;;;14.82;65.79
64853;BME280;56050;55.558;-4.644;2023-09-30T01:39:07;102173.66;;;14.83;65.76
64853;BME280;56050;55.558;-4.644;2023-09-30T01:41:33;102180.59;;;14.84;65.64
64853;BME280;56050;55.558;-4.644;2023-09-30T01:43:58;102180.25;;;14.85;65.85
64853;BME280;56050;55.558;-4.644;2023-09-30T01:46:24;102175.59;;;14.89;65.78
64853;BME280;56050;55.558;-4.644;2023-09-30T01:48:49;102189.19;;;14.93;65.59
64853;BME280;56050;55.558;-4.644;2023-09-30T01:51:15;102188.44;;;14.96;65.61
64853;BME280;56050;55.558;-4.644;2023-09-30T01:53:40;102183.03;;;14.99;65.37
64853;BME280;56050;55.558;-4.644;2023-09-30T01:56:06;102185.38;;;15.04;65.63
64853;BME280;56050;55.558;-4.644;2023-09-30T01:58:31;102186.16;;;15.08;65.53
64853;BME280;56050;55.558;-4.644;2023-09-30T02:01:03;102183.88;;;15.10;65.47
64853;BME280;56050;55.558;-4.644;2023-09-30T02:03:29;102180.78;;;15.15;65.45
64853;BME280;56050;55.558;-4.644;2023-09-30T02:05:55;102178.44;;;15.17;65.56
64853;BME280;56050;55.558;-4.644;2023-09-30T02:08:21;102179.63;;;15.20;65.45
64853;BME280;56050;55.558;-4.644;2023-09-30T02:10:47;102176.53;;;15.21;65.48
64853;BME280;56050;55.558;-4.644;2023-09-30T02:13:13;102180.44;;;15.24;65.56
64853;BME280;56050;55.558;-4.644;2023-09-30T02:15:41;102161.44;;;15.24;65.60
64853;BME280;56050;55.558;-4.644;2023-09-30T02:18:06;102157.16;;;15.26;65.59
64853;BME280;56050;55.558;-4.644;2023-09-30T02:20:32;102161.41;;;15.27;65.65
64853;BME280;56050;55.558;-4.644;2023-09-30T02:22:59;102154.84;;;15.28;65.51
64853;BME280;56050;55.558;-4.644;2023-09-30T02:25:25;102157.56;;;15.32;65.47
64853;BME280;56050;55.558;-4.644;2023-09-30T02:27:50;102164.16;;;15.35;65.66
64853;BME280;56050;55.558;-4.644;2023-09-30T02:30:16;102170.78;;;15.37;65.38
64853;BME280;56050;55.558;-4.644;2023-09-30T02:32:41;102175.06;;;15.38;65.42
64853;BME280;56050;55.558;-4.644;2023-09-30T02:35:08;102170.38;;;15.39;65.38
64853;BME280;56050;55.558;-4.644;2023-09-30T02:37:36;102171.16;;;15.39;65.59
64853;BME280;56050;55.558;-4.644;2023-09-30T02:40:05;102166.13;;;15.38;65.29
64853;BME280;56050;55.558;-4.644;2023-09-30T02:42:42;102164.19;;;15.38;65.53
64853;BME280;56050;55.558;-4.644;2023-09-30T02:45:09;102161.47;;;15.38;65.47
64853;BME280;56050;55.558;-4.644;2023-09-30T02:47:35;102166.91;;;15.38;65.38
64853;BME280;56050;55.558;-4.644;2023-09-30T02:50:01;102171.56;;;15.38;65.58
64853;BME280;56050;55.558;-4.644;2023-09-30T02:52:27;102173.50;;;15.37;65.41
64853;BME280;56050;55.558;-4.644;2023-09-30T02:54:55;102171.56;;;15.38;65.72
64853;BME280;56050;55.558;-4.644;2023-09-30T02:57:22;102179.31;;;15.39;65.50
64853;BME280;56050;55.558;-4.644;2023-09-30T02:59:48;102180.09;;;15.40;65.32
64853;BME280;56050;55.558;-4.644;2023-09-30T03:02:13;102175.81;;;15.42;65.34
64853;BME280;56050;55.558;-4.644;2023-09-30T03:04:40;102183.59;;;15.44;65.62
64853;BME280;56050;55.558;-4.644;2023-09-30T03:07:05;102187.84;;;15.45;65.56
64853;BME280;56050;55.558;-4.644;2023-09-30T03:09:31;102187.06;;;15.44;65.38
64853;BME280;56050;55.558;-4.644;2023-09-30T03:11:57;102181.28;;;15.46;65.56
64853;BME280;56050;55.558;-4.644;2023-09-30T03:14:24;102179.72;;;15.45;65.43
64853;BME280;56050;55.558;-4.644;2023-09-30T03:16:50;102177.00;;;15.45;65.55
64853;BME280;56050;55.558;-4.644;2023-09-30T03:19:15;102182.44;;;15.45;65.55
64853;BME280;56050;55.558;-4.644;2023-09-30T03:21:42;102185.94;;;15.45;65.48
64853;BME280;56050;55.558;-4.644;2023-09-30T03:24:08;102190.56;;;15.45;65.76
64853;BME280;56050;55.558;-4.644;2023-09-30T03:26:34;102189.44;;;15.46;65.57
64853;BME280;56050;55.558;-4.644;2023-09-30T03:29:00;102189.44;;;15.46;65.65
64853;BME280;56050;55.558;-4.644;2023-09-30T03:31:26;102185.56;;;15.47;65.42
64853;BME280;56050;55.558;-4.644;2023-09-30T03:33:52;102192.94;;;15.46;65.70
64853;BME280;56050;55.558;-4.644;2023-09-30T03:36:21;102189.06;;;15.47;65.63
64853;BME280;56050;55.558;-4.644;2023-09-30T03:38:50;102185.19;;;15.48;65.70
64853;BME280;56050;55.558;-4.644;2023-09-30T03:41:15;102189.47;;;15.49;65.55
64853;BME280;56050;55.558;-4.644;2023-09-30T03:43:40;102188.28;;;15.50;65.29
64853;BME280;56050;55.558;-4.644;2023-09-30T03:46:09;102197.22;;;15.51;65.48
64853;BME280;56050;55.558;-4.644;2023-09-30T03:48:35;102197.59;;;15.53;65.27
64853;BME280;56050;55.558;-4.644;2023-09-30T03:51:11;102200.72;;;15.51;65.58
64853;BME280;56050;55.558;-4.644;2023-09-30T03:53:43;102191.00;;;15.50;65.31
64853;BME280;56050;55.558;-4.644;2023-09-30T03:56:09;102191.78;;;15.51;65.24
64853;BME280;56050;55.558;-4.644;2023-09-30T03:58:40;102197.59;;;15.53;65.68
64853;BME280;56050;55.558;-4.644;2023-09-30T04:01:06;102203.44;;;15.55;65.42
64853;BME280;56050;55.558;-4.644;2023-09-30T04:03:33;102192.19;;;15.56;65.25
64853;BME280;56050;55.558;-4.644;2023-09-30T04:05:59;102187.13;;;15.55;65.60
64853;BME280;56050;55.558;-4.644;2023-09-30T04:08:24;102193.34;;;15.52;65.61
64853;BME280;56050;55.558;-4.644;2023-09-30T04:10:49;102192.19;;;15.53;65.64
64853;BME280;56050;55.558;-4.644;2023-09-30T04:13:15;102185.59;;;15.54;65.75
64853;BME280;56050;55.558;-4.644;2023-09-30T04:15:40;102174.72;;;15.54;65.65
64853;BME280;56050;55.558;-4.644;2023-09-30T04:18:06;102178.59;;;15.53;65.61
64853;BME280;56050;55.558;-4.644;2023-09-30T04:20:31;102175.88;;;15.53;65.66
64853;BME280;56050;55.558;-4.644;2023-09-30T04:22:57;102179.38;;;15.53;65.70
64853;BME280;56050;55.558;-4.644;2023-09-30T04:25:23;102184.03;;;15.53;65.33
64853;BME280;56050;55.558;-4.644;2023-09-30T04:27:51;102189.84;;;15.48;65.60
64853;BME280;56050;55.558;-4.644;2023-09-30T04:30:17;102189.38;;;15.39;65.57
64853;BME280;56050;55.558;-4.644;2023-09-30T04:32:43;102187.41;;;15.28;65.67
64853;BME280;56050;55.558;-4.644;2023-09-30T04:35:09;102183.13;;;15.20;65.96
64853;BME280;56050;55.558;-4.644;2023-09-30T04:37:35;102190.84;;;15.15;66.14
64853;BME280;56050;55.558;-4.644;2023-09-30T04:40:06;102192.38;;;15.09;66.14
64853;BME280;56050;55.558;-4.644;2023-09-30T04:42:41;102187.34;;;15.07;66.37
64853;BME280;56050;55.558;-4.644;2023-09-30T04:45:10;102193.13;;;15.06;66.33
64853;BME280;56050;55.558;-4.644;2023-09-30T04:47:36;102200.88;;;15.04;66.58
64853;BME280;56050;55.558;-4.644;2023-09-30T04:50:03;102200.50;;;15.05;66.61
64853;BME280;56050;55.558;-4.644;2023-09-30T04:52:30;102195.09;;;15.09;66.56
64853;BME280;56050;55.558;-4.644;2023-09-30T04:54:56;102195.13;;;15.16;66.32
64853;BME280;56050;55.558;-4.644;2023-09-30T04:57:22;102200.56;;;15.16;66.23
64853;BME280;56050;55.558;-4.644;2023-09-30T04:59:47;102197.03;;;15.12;66.10
64853;BME280;56050;55.558;-4.644;2023-09-30T05:02:12;102201.28;;;15.09;65.99
64853;BME280;56050;55.558;-4.644;2023-09-30T05:04:41;102202.44;;;15.05;66.08
64853;BME280;56050;55.558;-4.644;2023-09-30T05:07:07;102209.78;;;15.01;66.22
64853;BME280;56050;55.558;-4.644;2023-09-30T05:09:33;102208.56;;;14.95;66.09
64853;BME280;56050;55.558;-4.644;2023-09-30T05:11:59;102203.91;;;14.88;65.91
64853;BME280;56050;55.558;-4.644;2023-09-30T05:14:24;102185.25;;;14.83;66.18
64853;BME280;56050;55.558;-4.644;2023-09-30T05:16:49;102182.91;;;14.75;65.98
64853;BME280;56050;55.558;-4.644;2023-09-30T05:19:15;102177.03;;;14.65;66.11
64853;BME280;56050;55.558;-4.644;2023-09-30T05:21:40;102182.75;;;14.53;66.34
64853;BME280;56050;55.558;-4.644;2023-09-30T05:24:06;102190.38;;;14.37;66.45
64853;BME280;56050;55.558;-4.644;2023-09-30T05:26:32;102181.75;;;14.25;66.50
64853;BME280;56050;55.558;-4.644;2023-09-30T05:28:58;102187.09;;;14.18;66.50
64853;BME280;56050;55.558;-4.644;2023-09-30T05:31:24;102180.84;;;14.10;66.68
64853;BME280;56050;55.558;-4.644;2023-09-30T05:33:50;102188.13;;;14.02;66.88
64853;BME280;56050;55.558;-4.644;2023-09-30T05:36:15;102191.16;;;13.97;66.89
64853;BME280;56050;55.558;-4.644;2023-09-30T05:38:41;102180.66;;;13.92;66.71
64853;BME280;56050;55.558;-4.644;2023-09-30T05:41:07;102181.41;;;13.89;67.05
64853;BME280;56050;55.558;-4.644;2023-09-30T05:43:33;102170.19;;;13.87;66.92
64853;BME280;56050;55.558;-4.644;2023-09-30T05:45:58;102175.19;;;13.85;67.03
64853;BME280;56050;55.558;-4.644;2023-09-30T05:48:24;102181.75;;;13.84;66.81
64853;BME280;56050;55.558;-4.644;2023-09-30T05:50:49;102183.28;;;13.82;67.04
64853;BME280;56050;55.558;-4.644;2023-09-30T05:53:15;102191.41;;;13.82;67.05
64853;BME280;56050;55.558;-4.644;2023-09-30T05:55:41;102193.72;;;13.80;67.15
64853;BME280;56050;55.558;-4.644;2023-09-30T05:58:13;102177.41;;;13.76;67.12
64853;BME280;56050;55.558;-4.644;2023-09-30T06:00:40;102171.59;;;13.74;66.97
64853;BME280;56050;55.558;-4.644;2023-09-30T06:03:07;102187.81;;;13.71;67.01
64853;BME280;56050;55.558;-4.644;2023-09-30T06:05:33;102194.34;;;13.66;66.82
64853;BME280;56050;55.558;-4.644;2023-09-30T06:08:00;102185.00;;;13.60;66.98
64853;BME280;56050;55.558;-4.644;2023-09-30T06:10:28;102184.50;;;13.51;66.98
64853;BME280;56050;55.558;-4.644;2023-09-30T06:12:53;102191.72;;;13.40;67.13
64853;BME280;56050;55.558;-4.644;2023-09-30T06:15:23;102188.53;;;13.31;67.21
64853;BME280;56050;55.558;-4.644;2023-09-30T06:17:55;102185.31;;;13.22;67.46
64853;BME280;56050;55.558;-4.644;2023-09-30T06:20:21;102202.25;;;13.15;67.56
64853;BME280;56050;55.558;-4.644;2023-09-30T06:22:48;102204.91;;;13.12;67.53
64853;BME280;56050;55.558;-4.644;2023-09-30T06:25:17;102196.75;;;13.08;67.69
64853;BME280;56050;55.558;-4.644;2023-09-30T06:27:46;102188.16;;;13.03;67.73
64853;BME280;56050;55.558;-4.644;2023-09-30T06:30:13;102188.09;;;12.99;67.76
64853;BME280;56050;55.558;-4.644;2023-09-30T06:32:39;102182.28;;;12.97;67.75
64853;BME280;56050;55.558;-4.644;2023-09-30T06:35:06;102191.91;;;12.94;67.75
64853;BME280;56050;55.558;-4.644;2023-09-30T06:37:32;102198.44;;;12.93;67.98
64853;BME280;56050;55.558;-4.644;2023-09-30T06:39:58;102203.06;;;12.93;67.80
64853;BME280;56050;55.558;-4.644;2023-09-30T06:42:24;102214.31;;;12.95;67.79
64853;BME280;56050;55.558;-4.644;2023-09-30T06:44:50;102205.78;;;12.93;67.71
64853;BME280;56050;55.558;-4.644;2023-09-30T06:47:15;102205.00;;;12.92;68.01
64853;BME280;56050;55.558;-4.644;2023-09-30T06:49:41;102192.25;;;12.93;68.05
64853;BME280;56050;55.558;-4.644;2023-09-30T06:52:07;102191.91;;;12.94;67.85
64853;BME280;56050;55.558;-4.644;2023-09-30T06:54:32;102195.00;;;12.96;67.89
64853;BME280;56050;55.558;-4.644;2023-09-30T06:56:58;102195.41;;;12.98;67.97
64853;BME280;56050;55.558;-4.644;2023-09-30T06:59:23;102188.09;;;12.99;67.67
64853;BME280;56050;55.558;-4.644;2023-09-30T07:01:50;102178.41;;;12.98;67.69
64853;BME280;56050;55.558;-4.644;2023-09-30T07:04:16;102171.84;;;12.99;67.79
64853;BME280;56050;55.558;-4.644;2023-09-30T07:06:41;102165.31;;;13.00;67.69
64853;BME280;56050;55.558;-4.644;2023-09-30T07:09:07;102173.03;;;13.02;67.69
64853;BME280;56050;55.558;-4.644;2023-09-30T07:11:32;102192.81;;;13.06;67.66
64853;BME280;56050;55.558;-4.644;2023-09-30T07:13:58;102188.94;;;13.07;67.76
64853;BME280;56050;55.558;-4.644;2023-09-30T07:16:24;102182.44;;;13.08;67.88
64853;BME280;56050;55.558;-4.644;2023-09-30T07:18:49;102185.16;;;13.08;67.89
64853;BME280;56050;55.558;-4.644;2023-09-30T07:21:15;102195.97;;;13.08;67.69
64853;BME280;56050;55.558;-4.644;2023-09-30T07:23:41;102180.84;;;13.07;67.67
64853;BME280;56050;55.558;-4.644;2023-09-30T07:26:07;102190.56;;;13.08;67.93
64853;BME280;56050;55.558;-4.644;2023-09-30T07:28:33;102179.72;;;13.08;67.95
64853;BME280;56050;55.558;-4.644;2023-09-30T07:30:59;102179.00;;;13.11;68.00
64853;BME280;56050;55.558;-4.644;2023-09-30T07:33:24;102183.69;;;13.14;68.05
64853;BME280;56050;55.558;-4.644;2023-09-30T07:35:50;102184.09;;;13.16;67.76
64853;BME280;56050;55.558;-4.644;2023-09-30T07:38:15;102193.78;;;13.17;67.82
64853;BME280;56050;55.558;-4.644;2023-09-30T07:40:44;102196.09;;;13.18;67.78
64853;BME280;56050;55.558;-4.644;2023-09-30T07:43:10;102203.47;;;13.21;67.89
64853;BME280;56050;55.558;-4.644;2023-09-30T07:45:37;102205.81;;;13.23;67.95
64853;BME280;56050;55.558;-4.644;2023-09-30T07:48:03;102206.25;;;13.25;67.76
64853;BME280;56050;55.558;-4.644;2023-09-30T07:50:30;102212.06;;;13.27;67.69
64853;BME280;56050;55.558;-4.644;2023-09-30T07:52:56;102200.84;;;13.28;67.77
64853;BME280;56050;55.558;-4.644;2023-09-30T07:55:21;102190.47;;;13.30;68.01
64853;BME280;56050;55.558;-4.644;2023-09-30T07:57:46;102190.06;;;13.32;68.06
64853;BME280;56050;55.558;-4.644;2023-09-30T08:00:12;102185.84;;;13.34;68.16
64853;BME280;56050;55.558;-4.644;2023-09-30T08:02:42;102188.22;;;13.36;67.80
64853;BME280;56050;55.558;-4.644;2023-09-30T08:05:08;102186.31;;;13.40;67.85
64853;BME280;56050;55.558;-4.644;2023-09-30T08:07:34;102178.63;;;13.42;68.05
64853;BME280;56050;55.558;-4.644;2023-09-30T08:10:00;102173.22;;;13.45;67.99
64853;BME280;56050;55.558;-4.644;2023-09-30T08:12:25;102175.19;;;13.48;67.82
64853;BME280;56050;55.558;-4.644;2023-09-30T08:14:52;102162.47;;;13.52;67.93
64853;BME280;56050;55.558;-4.644;2023-09-30T08:17:17;102171.78;;;13.55;68.09
64853;BME280;56050;55.558;-4.644;2023-09-30T08:19:44;102174.94;;;13.61;67.92
64853;BME280;56050;55.558;-4.644;2023-09-30T08:22:09;102193.16;;;13.64;67.68
64853;BME280;56050;55.558;-4.644;2023-09-30T08:24:35;102173.09;;;13.68;67.75
64853;BME280;56050;55.558;-4.644;2023-09-30T08:27:01;102176.63;;;13.72;67.81
64853;BME280;56050;55.558;-4.644;2023-09-30T08:29:26;102174.72;;;13.76;67.62
64853;BME280;56050;55.558;-4.644;2023-09-30T08:31:52;102177.06;;;13.81;67.80
64853;BME280;56050;55.558;-4.644;2023-09-30T08:34:17;102172.47;;;13.85;67.68
64853;BME280;56050;55.558;-4.644;2023-09-30T08:36:45;102179.88;;;13.88;67.55
64853;BME280;56050;55.558;-4.644;2023-09-30T08:39:10;102179.53;;;13.93;67.71
64853;BME280;56050;55.558;-4.644;2023-09-30T08:41:36;102188.09;;;13.99;67.65
64853;BME280;56050;55.558;-4.644;2023-09-30T08:44:03;102186.97;;;14.03;67.50
64853;BME280;56050;55.558;-4.644;2023-09-30T08:46:33;102181.59;;;14.07;67.61
64853;BME280;56050;55.558;-4.644;2023-09-30T08:49:03;102170.00;;;14.10;67.74
64853;BME280;56050;55.558;-4.644;2023-09-30T08:51:30;102174.72;;;14.17;67.73
64853;BME280;56050;55.558;-4.644;2023-09-30T08:53:57;102170.88;;;14.21;67.64
64853;BME280;56050;55.558;-4.644;2023-09-30T08:56:28;102172.88;;;14.28;67.43
64853;BME280;56050;55.558;-4.644;2023-09-30T08:58:58;102169.81;;;14.33;67.29
64853;BME280;56050;55.558;-4.644;2023-09-30T09:01:28;102157.84;;;14.37;67.49
64853;BME280;56050;55.558;-4.644;2023-09-30T09:03:57;102160.97;;;14.43;67.31
64853;BME280;56050;55.558;-4.644;2023-09-30T09:06:24;102156.78;;;14.49;67.40
64853;BME280;56050;55.558;-4.644;2023-09-30T09:08:50;102165.31;;;14.54;67.43
64853;BME280;56050;55.558;-4.644;2023-09-30T09:11:16;102159.53;;;14.59;67.19
64853;BME280;56050;55.558;-4.644;2023-09-30T09:16:11;102160.00;;;14.72;67.08
64853;BME280;56050;55.558;-4.644;2023-09-30T09:18:37;102155.78;;;14.78;67.26
64853;BME280;56050;55.558;-4.644;2023-09-30T09:21:13;102152.69;;;14.83;67.13
64853;BME280;56050;55.558;-4.644;2023-09-30T09:23:44;102154.28;;;14.88;66.87
64853;BME280;56050;55.558;-4.644;2023-09-30T09:26:11;102146.56;;;14.93;66.99
64853;BME280;56050;55.558;-4.644;2023-09-30T09:28:37;102140.75;;;14.98;66.84
64853;BME280;56050;55.558;-4.644;2023-09-30T09:31:28;102125.25;;;15.02;66.97
64853;BME280;56050;55.558;-4.644;2023-09-30T09:33:54;102136.53;;;15.08;66.96
64853;BME280;56050;55.558;-4.644;2023-09-30T09:36:20;102144.31;;;15.13;66.83
64853;BME280;56050;55.558;-4.644;2023-09-30T09:38:49;102143.56;;;15.16;66.58
64853;BME280;56050;55.558;-4.644;2023-09-30T09:41:19;102145.13;;;15.20;66.84
64853;BME280;56050;55.558;-4.644;2023-09-30T09:43:49;102135.81;;;15.25;66.88
64853;BME280;56050;55.558;-4.644;2023-09-30T09:46:17;102134.28;;;15.31;66.88
64853;BME280;56050;55.558;-4.644;2023-09-30T09:48:45;102133.13;;;15.36;66.70
64853;BME280;56050;55.558;-4.644;2023-09-30T09:51:11;102127.34;;;15.41;66.52
64853;BME280;56050;55.558;-4.644;2023-09-30T09:53:39;102126.97;;;15.46;66.57
64853;BME280;56050;55.558;-4.644;2023-09-30T09:56:07;102125.81;;;15.47;66.51
64853;BME280;56050;55.558;-4.644;2023-09-30T09:58:35;102116.50;;;15.48;66.73
64853;BME280;56050;55.558;-4.644;2023-09-30T10:01:05;102120.00;;;15.48;66.33
64853;BME280;56050;55.558;-4.644;2023-09-30T10:03:31;102110.72;;;15.49;66.38
64853;BME280;56050;55.558;-4.644;2023-09-30T10:06:00;102107.97;;;15.53;66.71
64853;BME280;56050;55.558;-4.644;2023-09-30T10:08:46;102101.41;;;15.57;66.63
64853;BME280;56050;55.558;-4.644;2023-09-30T10:11:19;102097.53;;;15.62;66.56
64853;BME280;56050;55.558;-4.644;2023-09-30T10:14:03;102094.03;;;15.68;66.47
64853;BME280;56050;55.558;-4.644;2023-09-30T10:21:35;102082.00;;;15.80;66.21
64853;BME280;56050;55.558;-4.644;2023-09-30T10:30:14;102076.56;;;15.91;66.20
64853;BME280;56050;55.558;-4.644;2023-09-30T10:40:58;102059.44;;;16.08;65.90
64853;BME280;56050;55.558;-4.644;2023-09-30T10:43:34;102078.88;;;16.06;65.56
64853;BME280;56050;55.558;-4.644;2023-09-30T10:46:01;102078.09;;;16.09;65.47
64853;BME280;56050;55.558;-4.644;2023-09-30T10:51:15;102091.31;;;16.18;65.66
64853;BME280;56050;55.558;-4.644;2023-09-30T10:53:52;102083.13;;;16.21;65.50
64853;BME280;56050;55.558;-4.644;2023-09-30T10:56:19;102087.78;;;16.24;65.46
64853;BME280;56050;55.558;-4.644;2023-09-30T10:58:49;102085.06;;;16.28;65.39
64853;BME280;56050;55.558;-4.644;2023-09-30T11:01:20;102086.22;;;16.34;65.42
64853;BME280;56050;55.558;-4.644;2023-09-30T11:03:46;102086.97;;;16.38;65.67
64853;BME280;56050;55.558;-4.644;2023-09-30T11:06:13;102093.97;;;16.42;65.54
64853;BME280;56050;55.558;-4.644;2023-09-30T11:08:46;102102.50;;;16.48;65.34
64853;BME280;56050;55.558;-4.644;2023-09-30T11:11:12;102095.09;;;16.52;65.17
64853;BME280;56050;55.558;-4.644;2023-09-30T11:13:39;102095.13;;;16.59;65.09
64853;BME280;56050;55.558;-4.644;2023-09-30T11:16:05;102092.38;;;16.63;64.97
64853;BME280;56050;55.558;-4.644;2023-09-30T11:18:31;102093.94;;;16.64;65.02
64853;BME280;56050;55.558;-4.644;2023-09-30T11:21:08;102094.31;;;16.66;65.06
64853;BME280;56050;55.558;-4.644;2023-09-30T11:23:35;102081.84;;;16.68;65.03
64853;BME280;56050;55.558;-4.644;2023-09-30T11:26:01;102079.13;;;16.68;64.85
64853;BME280;56050;55.558;-4.644;2023-09-30T11:28:36;102068.66;;;16.67;64.91
64853;BME280;56050;55.558;-4.644;2023-09-30T11:31:02;102074.47;;;16.69;64.84
64853;BME280;56050;55.558;-4.644;2023-09-30T11:33:28;102081.09;;;16.68;64.81
64853;BME280;56050;55.558;-4.644;2023-09-30T11:38:26;102071.75;;;16.72;64.61
64853;BME280;56050;55.558;-4.644;2023-09-30T11:41:02;102079.13;;;16.72;64.50
64853;BME280;56050;55.558;-4.644;2023-09-30T11:43:33;102064.75;;;16.71;64.54
64853;BME280;56050;55.558;-4.644;2023-09-30T11:46:12;102068.25;;;16.72;64.77
64853;BME280;56050;55.558;-4.644;2023-09-30T11:49:01;102063.16;;;16.74;64.74
64853;BME280;56050;55.558;-4.644;2023-09-30T11:51:29;102053.06;;;16.78;64.47
64853;BME280;56050;55.558;-4.644;2023-09-30T11:53:55;102054.59;;;16.82;64.36
64853;BME280;56050;55.558;-4.644;2023-09-30T11:56:24;102053.41;;;16.83;64.49
64853;BME280;56050;55.558;-4.644;2023-09-30T11:58:56;102047.19;;;16.86;64.23
64853;BME280;56050;55.558;-4.644;2023-09-30T12:01:22;102051.06;;;16.85;64.51
64853;BME280;56050;55.558;-4.644;2023-09-30T12:03:48;102042.53;;;16.83;64.46
64853;BME280;56050;55.558;-4.644;2023-09-30T12:06:14;102045.25;;;16.83;64.43
64853;BME280;56050;55.558;-4.644;2023-09-30T12:08:42;102050.69;;;16.83;64.48
64853;BME280;56050;55.558;-4.644;2023-09-30T12:11:07;102051.88;;;16.82;64.32
64853;BME280;56050;55.558;-4.644;2023-09-30T12:13:33;102053.81;;;16.82;64.50
64853;BME280;56050;55.558;-4.644;2023-09-30T12:15:58;102050.69;;;16.83;64.43
64853;BME280;56050;55.558;-4.644;2023-09-30T12:18:24;102053.00;;;16.85;64.09
64853;BME280;56050;55.558;-4.644;2023-09-30T12:20:50;102039.41;;;16.88;64.47
64853;BME280;56050;55.558;-4.644;2023-09-30T12:23:20;102033.56;;;16.90;64.23
64853;BME280;56050;55.558;-4.644;2023-09-30T12:25:46;102032.00;;;16.92;64.06
64853;BME280;56050;55.558;-4.644;2023-09-30T12:28:12;102035.88;;;16.95;64.02
64853;BME280;56050;55.558;-4.644;2023-09-30T12:30:39;102030.00;;;16.96;64.01
64853;BME280;56050;55.558;-4.644;2023-09-30T12:33:05;102016.03;;;16.98;63.99
64853;BME280;56050;55.558;-4.644;2023-09-30T12:35:32;102015.25;;;16.97;64.18
64853;BME280;56050;55.558;-4.644;2023-09-30T12:37:58;102014.06;;;16.98;63.83
64853;BME280;56050;55.558;-4.644;2023-09-30T12:40:24;102009.38;;;16.99;63.92
64853;BME280;56050;55.558;-4.644;2023-09-30T12:42:50;102007.81;;;17.01;63.78
64853;BME280;56050;55.558;-4.644;2023-09-30T12:45:15;102006.28;;;17.00;63.91
64853;BME280;56050;55.558;-4.644;2023-09-30T12:47:43;102000.03;;;17.03;63.77
64853;BME280;56050;55.558;-4.644;2023-09-30T12:50:09;101989.50;;;17.09;63.71
64853;BME280;56050;55.558;-4.644;2023-09-30T12:52:35;101981.28;;;17.13;63.83
64853;BME280;56050;55.558;-4.644;2023-09-30T12:55:01;101988.66;;;17.16;63.61
64853;BME280;56050;55.558;-4.644;2023-09-30T12:57:27;101981.63;;;17.18;63.39
64853;BME280;56050;55.558;-4.644;2023-09-30T12:59:52;101975.38;;;17.21;63.64
64853;BME280;56050;55.558;-4.644;2023-09-30T13:02:19;101971.47;;;17.26;63.26
64853;BME280;56050;55.558;-4.644;2023-09-30T13:04:45;101961.31;;;17.30;63.04
64853;BME280;56050;55.558;-4.644;2023-09-30T13:07:13;101964.03;;;17.30;63.22